createdAt,value
2022-12-22T00:02:09.996Z,100299.41
2022-12-22T00:04:36.593Z,100295.13
2022-12-22T00:07:03.334Z,100294.28
2022-12-22T00:09:30.322Z,100295.13
2022-12-22T00:11:57.213Z,100294.28
2022-12-22T00:14:23.593Z,100292.66
2022-12-22T00:16:50.162Z,100287.31
2022-12-22T00:19:16.642Z,100287.31
2022-12-22T00:21:42.972Z,100279.28
2022-12-22T00:24:09.364Z,100284.63
2022-12-22T00:26:36.068Z,100290.19
2022-12-22T00:29:02.684Z,100285.66
2022-12-22T00:31:29.407Z,100283.22
2022-12-22T00:33:55.826Z,100283.22
2022-12-22T00:36:22.459Z,100283.22
2022-12-22T00:38:49.055Z,100282.38
2022-12-22T00:41:15.581Z,100281.56
2022-12-22T00:43:42.587Z,100283.44
2022-12-22T00:46:09.012Z,100281.56
2022-12-22T00:48:35.798Z,100284.47
2022-12-22T00:51:02.502Z,100281.81
2022-12-22T00:53:29.466Z,100273.78
2022-12-22T00:55:55.859Z,100270.28
2022-12-22T00:58:23.024Z,100267.59
2022-12-22T01:00:49.765Z,100275.84
2022-12-22T01:03:16.254Z,100276.47
2022-12-22T01:05:42.761Z,100268.66
2022-12-22T01:08:09.384Z,100265.97
2022-12-22T01:10:35.814Z,100261.66
2022-12-22T01:13:02.864Z,100264.31
2022-12-22T01:15:29.808Z,100271.53
2022-12-22T01:17:56.279Z,100257.56
2022-12-22T01:20:22.990Z,100249.53
2022-12-22T01:22:49.348Z,100253.03
2022-12-22T01:25:15.869Z,100252.22
2022-12-22T01:27:42.789Z,100253.25
2022-12-22T01:30:09.216Z,100253.25
2022-12-22T01:32:35.544Z,100254.09
2022-12-22T01:35:02.081Z,100246.28
2022-12-22T01:37:28.416Z,100249.75
2022-12-22T01:39:54.814Z,100247.06
2022-12-22T01:42:21.356Z,100239.06
2022-12-22T01:44:47.806Z,100240.09
2022-12-22T01:47:14.231Z,100243.81
2022-12-22T01:49:40.598Z,100233.13
2022-12-22T01:52:07.057Z,100226.94
2022-12-22T01:54:33.440Z,100226.94
2022-12-22T01:56:59.822Z,100226.16
2022-12-22T01:59:26.441Z,100230.66
2022-12-22T02:01:52.925Z,100219.97
2022-12-22T02:04:19.724Z,100215.66
2022-12-22T02:06:46.244Z,100221.00
2022-12-22T02:09:12.939Z,100213.81
2022-12-22T02:11:39.691Z,100204.97
2022-12-22T02:14:07.423Z,100199.63
2022-12-22T02:16:33.948Z,100201.47
2022-12-22T02:19:00.587Z,100200.06
2022-12-22T02:21:27.036Z,100199.00
2022-12-22T02:23:53.455Z,100193.66
2022-12-22T02:26:19.986Z,100189.97
2022-12-22T02:28:46.309Z,100191.00
2022-12-22T02:31:13.819Z,100197.16
2022-12-22T02:33:40.465Z,100189.38
2022-12-22T02:36:07.279Z,100184.03
2022-12-22T02:38:33.932Z,100180.28
2022-12-22T02:41:00.243Z,100181.34
2022-12-22T02:43:26.785Z,100177.03
2022-12-22T02:45:53.145Z,100185.06
2022-12-22T02:48:19.626Z,100180.53
2022-12-22T02:50:46.296Z,100181.81
2022-12-22T02:53:12.688Z,100179.13
2022-12-22T02:55:39.117Z,100173.78
2022-12-22T02:58:06.022Z,100160.41
2022-12-22T03:00:32.708Z,100166.00
2022-12-22T03:02:59.535Z,100163.31
2022-12-22T03:05:26.411Z,100169.47
2022-12-22T03:07:52.801Z,100165.16
2022-12-22T03:10:19.223Z,100155.28
2022-12-22T03:12:46.032Z,100155.28
2022-12-22T03:15:12.983Z,100150.97
2022-12-22T03:17:39.752Z,100145.63
2022-12-22T03:20:06.395Z,100141.09
2022-12-22T03:22:33.469Z,100143.19
2022-12-22T03:25:00.347Z,100135.97
2022-12-22T03:27:27.346Z,100127.16
2022-12-22T03:29:53.634Z,100127.16
2022-12-22T03:32:20.191Z,100123.66
2022-12-22T03:34:47.101Z,100115.63
2022-12-22T03:37:13.592Z,100109.25
2022-12-22T03:39:40.250Z,100102.28
2022-12-22T03:42:06.650Z,100107.63
2022-12-22T03:44:33.295Z,100105.97
2022-12-22T03:46:59.795Z,100107.00
2022-12-22T03:49:26.230Z,100097.13
2022-12-22T03:51:53.282Z,100095.50
2022-12-22T03:54:19.569Z,100100.84
2022-12-22T03:56:46.273Z,100085.03
2022-12-22T03:59:12.876Z,100079.47
2022-12-22T04:01:39.444Z,100085.88
2022-12-22T04:04:05.938Z,100078.88
2022-12-22T04:06:32.782Z,100076.19
2022-12-22T04:08:59.432Z,100063.88
2022-12-22T04:11:26.182Z,100060.16
2022-12-22T04:13:52.499Z,100058.53
2022-12-22T04:16:19.624Z,100063.06
2022-12-22T04:18:46.177Z,100055.84
2022-12-22T04:21:12.829Z,100059.56
2022-12-22T04:23:39.394Z,100049.09
2022-12-22T04:26:05.818Z,100056.06
2022-12-22T04:28:32.377Z,100048.06
2022-12-22T04:30:59.225Z,100047.25
2022-12-22T04:33:25.656Z,100045.59
2022-12-22T04:35:52.058Z,100049.94
2022-12-22T04:38:18.724Z,100050.94
2022-12-22T04:40:45.109Z,100054.44
2022-12-22T04:43:11.789Z,100051.19
2022-12-22T04:45:38.316Z,100044.81
2022-12-22T04:48:04.867Z,100039.69
2022-12-22T04:50:31.537Z,100043.97
2022-12-22T04:52:58.161Z,100035.16
2022-12-22T04:55:24.810Z,100040.50
2022-12-22T04:57:51.210Z,100032.72
2022-12-22T05:00:17.972Z,100027.38
2022-12-22T05:02:44.831Z,100027.38
2022-12-22T05:05:11.318Z,100025.69
2022-12-22T05:07:37.857Z,100025.50
2022-12-22T05:10:04.184Z,100029.00
2022-12-22T05:12:30.853Z,100025.69
2022-12-22T05:14:57.537Z,100024.91
2022-12-22T05:17:23.916Z,100020.38
2022-12-22T05:19:50.249Z,100012.34
2022-12-22T05:22:16.777Z,100014.00
2022-12-22T05:24:43.118Z,100003.53
2022-12-22T05:27:09.660Z,99999.22
2022-12-22T05:29:36.255Z,100001.06
2022-12-22T05:32:03.280Z,100000.25
2022-12-22T05:34:29.634Z,99999.44
2022-12-22T05:36:56.055Z,99993.28
2022-12-22T05:39:22.750Z,99993.06
2022-12-22T05:41:49.133Z,99985.25
2022-12-22T05:44:15.503Z,99979.91
2022-12-22T05:46:42.025Z,99976.44
2022-12-22T05:49:08.482Z,99971.91
2022-12-22T05:51:34.894Z,99977.25
2022-12-22T05:54:01.710Z,99969.44
2022-12-22T05:56:28.108Z,99969.44
2022-12-22T05:58:54.783Z,99965.16
2022-12-22T06:01:21.762Z,99958.75
2022-12-22T06:03:48.431Z,99962.47
2022-12-22T06:06:15.269Z,99957.97
2022-12-22T06:08:41.701Z,99958.75
2022-12-22T06:11:08.173Z,99958.75
2022-12-22T06:13:34.492Z,99957.13
2022-12-22T06:16:00.901Z,99958.19
2022-12-22T06:18:27.701Z,99956.31
2022-12-22T06:20:54.410Z,99956.56
2022-12-22T06:23:20.881Z,99953.88
2022-12-22T06:25:47.270Z,99958.19
2022-12-22T06:28:13.859Z,99951.22
2022-12-22T06:30:40.276Z,99937.84
2022-12-22T06:33:07.285Z,99941.53
2022-12-22T06:35:33.635Z,99938.06
2022-12-22T06:38:00.487Z,99944.22
2022-12-22T06:40:27.425Z,99941.53
2022-12-22T06:42:54.614Z,99941.78
2022-12-22T06:45:21.417Z,99934.56
2022-12-22T06:47:47.813Z,99935.63
2022-12-22T06:50:14.406Z,99932.72
2022-12-22T06:52:41.206Z,99932.13
2022-12-22T06:55:07.517Z,99932.94
2022-12-22T06:57:34.261Z,99918.78
2022-12-22T07:00:01.063Z,99915.28
2022-12-22T07:02:27.662Z,99920.63
2022-12-22T07:04:54.650Z,99925.16
2022-12-22T07:07:21.453Z,99921.66
2022-12-22T07:09:48.069Z,99925.16
2022-12-22T07:12:14.697Z,99920.25
2022-12-22T07:14:41.121Z,99921.09
2022-12-22T07:17:07.504Z,99919.25
2022-12-22T07:19:33.875Z,99921.09
2022-12-22T07:22:00.793Z,99910.41
2022-12-22T07:24:27.142Z,99910.41
2022-12-22T07:26:53.532Z,99905.06
2022-12-22T07:29:20.774Z,99901.34
2022-12-22T07:31:47.531Z,99897.03
2022-12-22T07:34:14.023Z,99894.81
2022-12-22T07:36:40.483Z,99898.53
2022-12-22T07:39:07.223Z,99893.75
2022-12-22T07:41:33.899Z,99886.00
2022-12-22T07:44:00.221Z,99893.19
2022-12-22T07:46:26.610Z,99889.47
2022-12-22T07:48:53.519Z,99888.66
2022-12-22T07:51:20.061Z,99885.16
2022-12-22T07:53:46.495Z,99875.53
2022-12-22T07:56:12.940Z,99875.53
2022-12-22T07:58:39.489Z,99872.84
2022-12-22T08:01:05.850Z,99877.38
2022-12-22T08:03:32.663Z,99872.84
2022-12-22T08:05:58.997Z,99875.53
2022-12-22T08:08:25.436Z,99873.91
2022-12-22T08:10:52.195Z,99866.69
2022-12-22T08:13:18.630Z,99873.91
2022-12-22T08:15:45.396Z,99858.69
2022-12-22T08:18:12.145Z,99859.72
2022-12-22T08:20:38.695Z,99850.88
2022-12-22T08:23:06.404Z,99848.22
2022-12-22T08:25:33.444Z,99846.38
2022-12-22T08:27:59.828Z,99850.09
2022-12-22T08:30:26.925Z,99845.53
2022-12-22T08:32:53.364Z,99839.41
2022-12-22T08:35:19.828Z,99837.75
2022-12-22T08:37:46.574Z,99840.19
2022-12-22T08:40:13.039Z,99835.69
2022-12-22T08:42:39.700Z,99828.72
2022-12-22T08:45:06.419Z,99832.41
2022-12-22T08:47:33.011Z,99832.41
2022-12-22T08:49:59.370Z,99833.22
2022-12-22T08:52:25.945Z,99834.28
2022-12-22T08:54:52.716Z,99836.13
2022-12-22T08:57:19.106Z,99828.13
2022-12-22T08:59:45.869Z,99823.59
2022-12-22T09:02:12.568Z,99816.38
2022-12-22T09:04:39.027Z,99812.91
2022-12-22T09:07:05.406Z,99811.28
2022-12-22T09:09:31.977Z,99809.63
2022-12-22T09:11:58.854Z,99802.44
2022-12-22T09:14:25.809Z,99797.94
2022-12-22T09:16:52.953Z,99805.13
2022-12-22T09:19:19.490Z,99797.94
2022-12-22T09:21:46.478Z,99795.25
2022-12-22T09:24:13.096Z,99798.72
2022-12-22T09:26:39.992Z,99792.94
2022-12-22T09:29:06.354Z,99796.44
2022-12-22T09:31:32.861Z,99784.31
2022-12-22T09:33:59.824Z,99783.53
2022-12-22T09:36:26.227Z,99780.03
2022-12-22T09:38:53.235Z,99778.63
2022-12-22T09:41:19.593Z,99777.59
2022-12-22T09:43:46.339Z,99768.78
2022-12-22T09:46:12.683Z,99759.94
2022-12-22T09:48:39.080Z,99761.00
2022-12-22T09:51:05.409Z,99762.03
2022-12-22T09:53:31.782Z,99755.66
2022-12-22T09:55:58.411Z,99766.34
2022-12-22T09:58:26.723Z,99761.00
2022-12-22T10:00:53.421Z,99758.31
2022-12-22T10:03:20.190Z,99760.16
2022-12-22T10:05:46.623Z,99752.97
2022-12-22T10:08:13.398Z,99739.84
2022-12-22T10:10:40.196Z,99746.81
2022-12-22T10:13:06.642Z,99735.31
2022-12-22T10:15:32.988Z,99731.00
2022-12-22T10:17:59.493Z,99728.34
2022-12-22T10:20:25.786Z,99729.97
2022-12-22T10:22:52.176Z,99721.16
2022-12-22T10:25:18.883Z,99709.63
2022-12-22T10:27:49.890Z,99710.47
2022-12-22T10:30:17.988Z,99706.97
2022-12-22T10:32:44.498Z,99707.78
2022-12-22T10:35:11.028Z,99694.66
2022-12-22T10:37:37.562Z,99697.34
2022-12-22T10:40:04.823Z,99692.00
2022-12-22T10:42:31.293Z,99686.66
2022-12-22T10:44:58.076Z,99689.31
2022-12-22T10:47:24.784Z,99700.00
2022-12-22T10:52:18.394Z,99691.75
2022-12-22T10:54:47.081Z,99685.59
2022-12-22T10:57:13.617Z,99685.59
2022-12-22T10:59:40.058Z,99683.75
2022-12-22T11:02:06.911Z,99682.94
2022-12-22T11:04:33.709Z,99676.78
2022-12-22T11:07:00.120Z,99682.13
2022-12-22T11:09:35.266Z,99674.91
2022-12-22T11:12:02.501Z,99673.06
2022-12-22T11:14:29.100Z,99667.72
2022-12-22T11:16:55.572Z,99669.56
2022-12-22T11:19:22.083Z,99656.47
2022-12-22T11:21:48.422Z,99659.72
2022-12-22T11:24:15.176Z,99650.09
2022-12-22T11:26:41.542Z,99650.88
2022-12-22T11:29:08.134Z,99641.25
2022-12-22T11:31:34.585Z,99633.25
2022-12-22T11:34:01.089Z,99634.06
2022-12-22T11:36:27.517Z,99633.25
2022-12-22T11:38:53.989Z,99626.84
2022-12-22T11:41:21.162Z,99620.94
2022-12-22T11:43:47.901Z,99623.38
2022-12-22T11:46:14.331Z,99612.91
2022-12-22T11:48:40.765Z,99617.22
2022-12-22T11:51:08.431Z,99615.59
2022-12-22T11:53:36.194Z,99612.91
2022-12-22T11:56:02.668Z,99610.25
2022-12-22T11:58:29.469Z,99609.44
2022-12-22T12:01:14.915Z,99603.28
2022-12-22T12:03:42.540Z,99598.75
2022-12-22T12:06:09.016Z,99601.41
2022-12-22T12:08:37.978Z,99606.75
2022-12-22T12:11:04.790Z,99607.81
2022-12-22T12:13:36.769Z,99602.47
2022-12-22T12:16:03.483Z,99603.28
2022-12-22T12:18:30.205Z,99606.75
2022-12-22T12:20:56.791Z,99599.78
2022-12-22T12:23:23.363Z,99597.13
2022-12-22T12:25:49.665Z,99592.59
2022-12-22T12:28:16.275Z,99597.13
2022-12-22T12:30:42.572Z,99580.53
2022-12-22T12:33:09.816Z,99588.28
2022-12-22T12:35:36.412Z,99582.94
2022-12-22T12:38:03.259Z,99592.84
2022-12-22T12:40:30.000Z,99589.34
2022-12-22T12:42:57.474Z,99589.34
2022-12-22T12:45:23.794Z,99582.16
2022-12-22T12:47:50.478Z,99588.53
2022-12-22T12:50:17.117Z,99581.31
2022-12-22T12:52:43.743Z,99579.47
2022-12-22T12:55:12.153Z,99579.72
2022-12-22T12:57:42.230Z,99583.22
2022-12-22T13:00:08.727Z,99579.72
2022-12-22T13:02:38.074Z,99585.88
2022-12-22T13:05:07.737Z,99579.72
2022-12-22T13:07:34.573Z,99576.22
2022-12-22T13:10:01.273Z,99578.88
2022-12-22T13:12:28.133Z,99576.22
2022-12-22T13:14:54.705Z,99573.81
2022-12-22T13:17:21.477Z,99570.88
2022-12-22T13:19:48.914Z,99578.31
2022-12-22T13:22:15.724Z,99575.41
2022-12-22T13:24:49.157Z,99571.94
2022-12-22T13:27:15.794Z,99580.75
2022-12-22T13:29:42.351Z,99575.41
2022-12-22T13:32:09.577Z,99573.81
2022-12-22T13:34:51.022Z,99577.25
2022-12-22T13:37:23.092Z,99585.28
2022-12-22T13:39:49.640Z,99584.50
2022-12-22T13:42:16.168Z,99577.50
2022-12-22T13:44:43.100Z,99584.50
2022-12-22T13:47:10.291Z,99582.59
2022-12-22T13:50:07.008Z,99582.84
2022-12-22T13:52:24.205Z,99582.03
2022-12-22T13:54:50.878Z,99583.66
2022-12-22T13:57:17.758Z,99587.38
2022-12-22T13:59:44.182Z,99587.38
2022-12-22T14:02:10.858Z,99587.38
2022-12-22T14:04:37.684Z,99588.19
2022-12-22T14:07:04.674Z,99585.50
2022-12-22T14:09:31.490Z,99582.84
2022-12-22T14:11:58.151Z,99592.72
2022-12-22T14:14:24.982Z,99593.50
2022-12-22T14:16:51.645Z,99606.88
2022-12-22T14:19:18.112Z,99600.72
2022-12-22T14:21:45.026Z,99601.75
2022-12-22T14:24:11.700Z,99607.09
2022-12-22T14:26:38.216Z,99613.25
2022-12-22T14:29:04.815Z,99609.75
2022-12-22T14:31:31.141Z,99604.41
2022-12-22T14:33:57.536Z,99613.25
2022-12-22T14:36:24.365Z,99619.44
2022-12-22T14:38:51.149Z,99617.78
2022-12-22T14:41:17.579Z,99618.59
2022-12-22T14:43:44.175Z,99623.13
2022-12-22T14:46:11.120Z,99626.63
2022-12-22T14:48:37.567Z,99623.13
2022-12-22T14:51:04.278Z,99627.44
2022-12-22T14:53:30.766Z,99623.13
2022-12-22T14:55:57.113Z,99633.00
2022-12-22T14:58:23.459Z,99623.94
2022-12-22T15:00:50.047Z,99637.28
2022-12-22T15:03:17.240Z,99640.19
2022-12-22T15:05:43.783Z,99634.84
2022-12-22T15:08:10.625Z,99649.81
2022-12-22T15:10:37.082Z,99655.16
2022-12-22T15:13:03.750Z,99658.66
2022-12-22T15:15:30.591Z,99659.69
2022-12-22T15:17:56.998Z,99663.44
2022-12-22T15:20:24.071Z,99666.88
2022-12-22T15:22:50.516Z,99669.56
2022-12-22T15:25:17.344Z,99660.50
2022-12-22T15:27:43.764Z,99668.75
2022-12-22T15:30:10.130Z,99675.72
2022-12-22T15:32:38.184Z,99678.41
2022-12-22T15:35:04.688Z,99671.19
2022-12-22T15:37:31.473Z,99680.25
2022-12-22T15:39:58.379Z,99677.00
2022-12-22T15:42:24.982Z,99693.81
2022-12-22T15:44:51.701Z,99695.47
2022-12-22T15:47:18.088Z,99696.50
2022-12-22T15:49:45.163Z,99698.13
2022-12-22T15:52:11.953Z,99698.13
2022-12-22T15:54:38.321Z,99710.66
2022-12-22T15:57:05.158Z,99708.00
2022-12-22T15:59:32.035Z,99718.66
2022-12-22T16:02:01.896Z,99715.19
2022-12-22T16:04:29.073Z,99719.50
2022-12-22T16:06:55.634Z,99723.19
2022-12-22T16:09:22.016Z,99736.53
2022-12-22T16:11:48.399Z,99738.41
2022-12-22T16:14:14.794Z,99741.09
2022-12-22T16:16:41.434Z,99736.53
2022-12-22T16:19:07.824Z,99736.53
2022-12-22T16:21:34.293Z,99736.53
2022-12-22T16:24:00.609Z,99740.25
2022-12-22T16:26:27.418Z,99746.44
2022-12-22T16:28:53.792Z,99750.94
2022-12-22T16:31:20.216Z,99744.78
2022-12-22T16:33:47.115Z,99752.78
2022-12-22T16:36:13.879Z,99756.28
2022-12-22T16:38:40.264Z,99765.34
2022-12-22T16:41:06.679Z,99771.47
2022-12-22T16:43:51.606Z,99774.97
2022-12-22T16:46:20.676Z,99764.72
2022-12-22T16:48:47.473Z,99781.13
2022-12-22T16:51:14.118Z,99784.03
2022-12-22T16:53:41.059Z,99784.03
2022-12-22T16:56:07.585Z,99781.34
2022-12-22T16:58:34.002Z,99792.84
2022-12-22T17:01:00.813Z,99799.00
2022-12-22T17:03:27.239Z,99804.56
2022-12-22T17:05:53.822Z,99804.56
2022-12-22T17:08:20.441Z,99816.06
2022-12-22T17:10:47.335Z,99823.25
2022-12-22T17:13:14.005Z,99826.97
2022-12-22T17:15:40.440Z,99833.94
2022-12-22T17:18:06.821Z,99837.44
2022-12-22T17:20:33.185Z,99848.69
2022-12-22T17:22:59.594Z,99847.06
2022-12-22T17:25:29.010Z,99855.91
2022-12-22T17:27:55.958Z,99857.16
2022-12-22T17:30:22.741Z,99865.53
2022-12-22T17:32:49.069Z,99861.25
2022-12-22T17:35:15.968Z,99861.47
2022-12-22T17:37:42.313Z,99865.19
2022-12-22T17:40:10.884Z,99872.16
2022-12-22T17:42:37.875Z,99874.00
2022-12-22T17:45:04.759Z,99871.94
2022-12-22T17:47:34.915Z,99868.44
2022-12-22T17:50:07.619Z,99877.50
2022-12-22T17:52:33.974Z,99882.00
2022-12-22T17:55:00.418Z,99883.63
2022-12-22T17:57:27.490Z,99883.03
2022-12-22T17:59:53.887Z,99887.56
2022-12-22T18:02:21.140Z,99891.06
2022-12-22T18:04:47.963Z,99895.56
2022-12-22T18:07:14.280Z,99898.25
2022-12-22T18:09:40.694Z,99899.28
2022-12-22T18:12:07.440Z,99897.22
2022-12-22T18:14:34.211Z,99890.22
2022-12-22T18:17:00.654Z,99905.47
2022-12-22T18:19:27.110Z,99909.75
2022-12-22T18:21:53.625Z,99907.50
2022-12-22T18:24:20.117Z,99908.34
2022-12-22T18:26:46.575Z,99908.91
2022-12-22T18:29:13.781Z,99917.97
2022-12-22T18:31:40.359Z,99915.31
2022-12-22T18:34:06.871Z,99920.66
2022-12-22T18:36:33.923Z,99921.47
2022-12-22T18:39:00.351Z,99926.00
2022-12-22T18:41:28.733Z,99930.53
2022-12-22T18:43:55.413Z,99930.53
2022-12-22T18:46:22.200Z,99940.16
2022-12-22T18:48:48.619Z,99939.13
2022-12-22T18:51:15.039Z,99942.84
2022-12-22T18:53:43.507Z,99938.75
2022-12-22T18:56:09.930Z,99946.16
2022-12-22T18:58:37.204Z,99935.91
2022-12-22T19:01:04.260Z,99943.91
2022-12-22T19:03:31.604Z,99941.22
2022-12-22T19:05:58.454Z,99946.78
2022-12-22T19:08:25.700Z,99940.81
2022-12-22T19:10:52.111Z,99939.56
2022-12-22T19:13:18.718Z,99942.44
2022-12-22T19:15:45.136Z,99935.88
2022-12-22T19:18:11.454Z,99945.00
2022-12-22T19:20:38.304Z,99936.84
2022-12-22T19:23:04.704Z,99936.19
2022-12-22T19:25:31.098Z,99932.91
2022-12-22T19:27:57.803Z,99927.78
2022-12-22T19:30:24.645Z,99932.47
2022-12-22T19:32:51.422Z,99934.00
2022-12-22T19:35:18.347Z,99935.88
2022-12-22T19:37:45.633Z,99944.56
2022-12-22T19:40:12.605Z,99942.34
2022-12-22T19:42:39.053Z,99940.53
2022-12-22T19:45:11.525Z,99943.69
2022-12-22T19:47:40.776Z,99944.38
2022-12-22T19:50:07.337Z,99950.78
2022-12-22T19:52:33.771Z,99956.00
2022-12-22T19:55:00.817Z,99956.72
2022-12-22T19:57:29.003Z,99955.53
2022-12-22T19:59:55.669Z,99955.69
2022-12-22T20:02:22.403Z,99955.56
2022-12-22T20:04:48.822Z,99958.13
2022-12-22T20:07:15.187Z,99959.84
2022-12-22T20:09:41.497Z,99969.59
2022-12-22T20:12:13.013Z,99974.03
2022-12-22T20:14:39.420Z,99972.31
2022-12-22T20:17:08.528Z,99982.91
2022-12-22T20:19:35.364Z,99971.69
2022-12-22T20:22:01.898Z,99971.00
2022-12-22T20:27:14.013Z,99968.75
2022-12-22T20:32:28.333Z,99961.41
2022-12-22T20:34:54.919Z,99962.00
2022-12-22T20:37:22.591Z,99965.81
2022-12-22T20:39:49.400Z,99956.81
2022-12-22T20:42:16.033Z,99966.00
2022-12-22T20:45:03.114Z,99960.06
2022-12-22T20:47:29.413Z,99966.72
2022-12-22T20:49:56.261Z,99970.22
2022-12-22T20:52:22.807Z,99957.88
2022-12-22T20:54:49.119Z,99964.03
2022-12-22T20:57:15.617Z,99965.69
2022-12-22T20:59:42.445Z,99972.44
2022-12-22T21:02:09.594Z,99976.75
2022-12-22T21:04:36.141Z,99982.66
2022-12-22T21:07:02.724Z,99972.53
2022-12-22T21:09:29.126Z,99976.13
2022-12-22T21:11:56.325Z,99969.69
2022-12-22T21:14:23.156Z,99968.88
2022-12-22T21:16:50.899Z,99964.09
2022-12-22T21:19:19.016Z,99970.63
2022-12-22T21:21:45.781Z,99959.88
2022-12-22T21:24:12.655Z,99962.81
2022-12-22T21:26:39.678Z,99964.19
2022-12-22T21:29:06.624Z,99958.34
2022-12-22T21:31:33.439Z,99970.22
2022-12-22T21:34:00.390Z,99977.00
2022-12-22T21:36:27.140Z,99978.13
2022-12-22T21:38:53.777Z,99974.38
2022-12-22T21:41:20.612Z,99982.53
2022-12-22T21:43:47.774Z,99983.69
2022-12-22T21:46:14.451Z,99977.84
2022-12-22T21:48:40.831Z,99970.09
2022-12-22T21:51:07.533Z,99972.06
2022-12-22T21:53:34.787Z,99980.44
2022-12-22T21:56:01.929Z,99974.00
2022-12-22T21:58:28.785Z,99977.88
2022-12-22T22:00:55.235Z,99976.34
2022-12-22T22:03:21.702Z,99973.97
2022-12-22T22:05:48.451Z,99975.09
2022-12-22T22:08:16.877Z,99970.09
2022-12-22T22:10:43.378Z,99964.22
2022-12-22T22:13:10.797Z,99968.84
2022-12-22T22:15:37.462Z,99969.19
2022-12-22T22:18:07.201Z,99972.22
2022-12-22T22:20:33.964Z,99979.75
2022-12-22T22:23:00.891Z,99978.44
2022-12-22T22:25:27.296Z,99971.53
2022-12-22T22:27:53.797Z,99979.94
2022-12-22T22:30:20.400Z,99973.81
2022-12-22T22:32:47.580Z,99977.88
2022-12-22T22:35:14.651Z,99970.16
2022-12-22T22:37:41.568Z,99968.59
2022-12-22T22:40:08.714Z,99962.72
2022-12-22T22:42:35.351Z,99963.06
2022-12-22T22:45:02.242Z,99954.22
2022-12-22T22:47:29.307Z,99946.94
2022-12-22T22:49:56.329Z,99959.47
2022-12-22T22:52:22.868Z,99954.03
2022-12-22T22:54:50.014Z,99948.56
2022-12-22T22:57:17.000Z,99942.03
2022-12-22T22:59:44.318Z,99932.88
2022-12-22T23:02:11.234Z,99943.28
2022-12-22T23:04:37.825Z,99944.34
2022-12-22T23:09:54.719Z,99938.31
2022-12-22T23:12:21.053Z,99942.06
2022-12-22T23:14:47.617Z,99936.16
2022-12-22T23:17:14.198Z,99935.56
2022-12-22T23:19:40.530Z,99932.31
2022-12-22T23:22:07.183Z,99930.94
2022-12-22T23:24:33.900Z,99928.75
2022-12-22T23:27:00.366Z,99922.00
2022-12-22T23:29:27.488Z,99920.84
2022-12-22T23:31:53.973Z,99915.13
2022-12-22T23:34:20.447Z,99907.34
2022-12-22T23:36:47.294Z,99898.72
2022-12-22T23:39:13.819Z,99880.63
2022-12-22T23:41:40.202Z,99878.44
2022-12-22T23:44:07.161Z,99873.53
2022-12-22T23:46:33.612Z,99862.50
2022-12-22T23:49:00.244Z,99862.97
2022-12-22T23:51:27.133Z,99854.38
2022-12-22T23:53:53.423Z,99848.66
2022-12-22T23:56:19.902Z,99852.88
2022-12-22T23:58:51.013Z,99856.09
